Terminal Aerodrome Forecast
Issued by NWS

Home | Current Version | Previous Version | Text Only | Print | Product List | Glossary On
Versions: 1 2 3 4 5 6 7 8 9 10 11 12 13 14 15 16 17
000
FTUS45 KRIW 042337
TAFCPR
TAF
KCPR 042337Z 0500/0524 22024G32KT P6SM BKN100 OVC200 WS016/25055KT
     FM051000 24014G20KT P6SM BKN070
     FM051300 32014G20KT P6SM VCSH BKN015 OVC035
     FM051600 34010KT 3SM -SN BKN015
     FM052100 29010KT P6SM BKN030=

USA.gov is the U.S. government's official web portal to all federal, state and local government web resources and services.